Time;durP1;ratioP1;P1;durP2;ratioP2;P2;SDS_P1;SDS_P2;PMS_P1;PMS_P2;Temp;Humidity;BMP_temperature;BMP_pressure;BME280_temperature;BME280_humidity;BME280_pressure;Samples;Min_cycle;Max_cycle;Signal;HPM_P1;HPM_P2
2021/06/11 00:00:33;;;;;;;25.80;22.60;;;12.10;99.90;;;;;;2080513;28;20237;-74
2021/06/11 00:01:33;;;;;;;24.87;22.20;;;12.10;99.90;;;;;;2080630;28;20288;-74
2021/06/11 00:02:35;;;;;;;29.50;24.53;;;12.20;99.90;;;;;;2072157;28;20190;-73
2021/06/11 00:03:36;;;;;;;23.85;21.38;;;12.20;99.90;;;;;;2080548;28;20212;-73
2021/06/11 00:04:37;;;;;;;24.00;21.40;;;12.20;99.90;;;;;;2088529;28;20185;-73
2021/06/11 00:05:38;;;;;;;23.67;21.17;;;12.20;99.90;;;;;;2080506;28;20179;-73
2021/06/11 00:06:39;;;;;;;23.50;21.00;;;12.20;99.90;;;;;;2080386;28;20287;-73
2021/06/11 00:07:40;;;;;;;22.00;19.77;;;12.30;99.90;;;;;;2080434;28;20181;-72
2021/06/11 00:08:40;;;;;;;28.37;23.00;;;12.30;99.90;;;;;;2089340;28;20242;-72
2021/06/11 00:09:41;;;;;;;29.67;24.70;;;12.30;99.90;;;;;;2080345;28;20200;-73
2021/06/11 00:10:42;;;;;;;29.17;22.43;;;12.20;99.90;;;;;;2072406;28;20182;-73
2021/06/11 00:11:45;;;;;;;21.38;19.02;;;12.20;99.90;;;;;;2080325;28;20203;-73
2021/06/11 00:12:45;;;;;;;23.00;19.20;;;12.20;99.90;;;;;;2080241;28;20205;-73
2021/06/11 00:13:46;;;;;;;24.40;21.80;;;12.20;99.90;;;;;;2080404;28;20608;-73
2021/06/11 00:14:47;;;;;;;28.20;23.13;;;12.20;99.90;;;;;;2089326;28;20184;-73
2021/06/11 00:15:49;;;;;;;23.97;20.27;;;12.20;99.90;;;;;;2080402;28;20262;-74
2021/06/11 00:16:49;;;;;;;24.60;20.60;;;12.10;99.90;;;;;;2080282;28;20179;-73
2021/06/11 00:17:50;;;;;;;23.13;20.63;;;12.10;99.90;;;;;;2089173;28;20184;-73
2021/06/11 00:18:51;;;;;;;22.80;20.20;;;12.10;99.90;;;;;;2088518;28;20177;-73
2021/06/11 00:19:51;;;;;;;27.03;21.70;;;12.10;99.90;;;;;;2088385;28;20295;-73
2021/06/11 00:20:53;;;;;;;26.33;22.33;;;12.10;99.90;;;;;;2080375;28;20229;-73
2021/06/11 00:21:54;;;;;;;23.15;20.48;;;12.10;99.90;;;;;;2080377;28;20180;-73
2021/06/11 00:22:54;;;;;;;26.50;22.23;;;12.00;99.90;;;;;;2089056;28;20183;-73
2021/06/11 00:23:55;;;;;;;25.63;21.60;;;12.00;99.90;;;;;;2080328;28;20265;-73
2021/06/11 00:24:56;;;;;;;22.07;19.03;;;12.00;99.90;;;;;;2072342;28;20192;-73
2021/06/11 00:25:57;;;;;;;20.93;17.57;;;12.00;99.90;;;;;;2072111;28;20200;-73
2021/06/11 00:26:58;;;;;;;20.57;18.37;;;12.00;99.90;;;;;;2072329;28;20197;-73
2021/06/11 00:27:59;;;;;;;22.07;18.57;;;12.00;99.90;;;;;;2080248;28;20259;-73
2021/06/11 00:29:00;;;;;;;18.63;16.65;;;12.00;99.90;;;;;;2080376;28;20442;-73
2021/06/11 00:30:03;;;;;;;18.17;15.17;;;11.90;99.90;;;;;;2089226;28;20195;-72
2021/06/11 00:31:03;;;;;;;18.73;16.73;;;11.90;99.90;;;;;;2089206;28;20216;-73
2021/06/11 00:32:05;;;;;;;22.13;17.77;;;11.90;99.90;;;;;;2089165;28;20187;-73
2021/06/11 00:33:07;;;;;;;17.45;15.63;;;11.80;99.90;;;;;;2089004;28;20254;-74
2021/06/11 00:34:08;;;;;;;21.45;19.15;;;11.80;99.90;;;;;;2089069;28;20259;-73
2021/06/11 00:35:09;;;;;;;26.83;22.73;;;11.90;99.90;;;;;;2089171;28;20172;-73
2021/06/11 00:36:10;;;;;;;22.63;19.98;;;11.80;99.90;;;;;;2089037;28;20180;-74
2021/06/11 00:37:10;;;;;;;25.67;20.80;;;11.80;99.90;;;;;;2089177;28;20302;-73
2021/06/11 00:38:11;;;;;;;24.67;21.13;;;11.80;99.90;;;;;;2089028;28;20179;-73
2021/06/11 00:39:12;;;;;;;28.60;23.00;;;11.70;99.90;;;;;;2089053;28;20177;-73
2021/06/11 00:40:13;;;;;;;27.40;23.37;;;11.70;99.90;;;;;;2089035;28;20176;-73
2021/06/11 00:41:14;;;;;;;27.00;23.10;;;11.70;99.90;;;;;;2080373;28;20571;-73
2021/06/11 00:42:15;;;;;;;25.60;22.23;;;11.70;99.90;;;;;;2080182;28;20237;-73
2021/06/11 00:43:16;;;;;;;19.00;16.87;;;11.70;99.90;;;;;;2088898;28;20801;-73
2021/06/11 00:44:16;;;;;;;24.17;21.17;;;11.70;99.90;;;;;;2089107;28;20200;-73
2021/06/11 00:45:17;;;;;;;23.57;19.97;;;11.70;99.90;;;;;;2080272;28;20210;-73
2021/06/11 00:46:18;;;;;;;20.88;18.10;;;11.60;99.90;;;;;;2080287;28;20294;-73
2021/06/11 00:47:19;;;;;;;20.53;18.33;;;11.60;99.90;;;;;;2080273;28;20185;-72
2021/06/11 00:48:20;;;;;;;20.07;17.63;;;11.60;99.90;;;;;;2080443;28;20211;-73
2021/06/11 00:49:21;;;;;;;19.00;16.67;;;11.60;99.90;;;;;;2080221;28;20207;-73
2021/06/11 00:50:25;;;;;;;24.02;19.48;;;11.60;99.90;;;;;;2080545;28;20169;-72
2021/06/11 00:51:26;;;;;;;20.13;17.40;;;11.60;99.90;;;;;;2080365;28;20188;-74
2021/06/11 00:52:30;;;;;;;20.15;18.02;;;11.50;99.90;;;;;;2080364;28;20181;-73
2021/06/11 00:53:31;;;;;;;20.75;17.77;;;11.50;99.90;;;;;;2080318;28;20675;-73
2021/06/11 00:54:33;;;;;;;18.87;16.30;;;11.50;99.90;;;;;;2080300;28;20184;-74
2021/06/11 00:55:34;;;;;;;19.17;17.10;;;11.50;99.90;;;;;;2089052;28;20750;-74
2021/06/11 00:56:35;;;;;;;22.00;19.48;;;11.40;99.90;;;;;;2088544;28;20186;-72
2021/06/11 00:57:36;;;;;;;20.17;16.83;;;11.40;99.90;;;;;;2088449;28;20190;-74
2021/06/11 00:58:37;;;;;;;28.00;20.70;;;11.40;99.90;;;;;;2089162;28;20267;-73
2021/06/11 00:59:43;;;;;;;28.47;22.60;;;11.40;99.90;;;;;;2088774;28;20465;-72
2021/06/11 01:00:44;;;;;;;28.90;22.50;;;11.40;99.90;;;;;;2080238;28;20558;-72
2021/06/11 01:01:45;;;;;;;26.55;22.45;;;11.40;99.90;;;;;;2072588;28;20192;-73
2021/06/11 01:02:46;;;;;;;26.15;22.17;;;11.40;99.90;;;;;;2080138;28;20190;-73
2021/06/11 01:03:47;;;;;;;26.55;22.17;;;11.50;99.90;;;;;;2080205;28;20757;-73
2021/06/11 01:04:49;;;;;;;28.30;23.93;;;11.50;99.90;;;;;;2080197;28;20181;-73
2021/06/11 01:05:51;;;;;;;25.70;22.90;;;11.50;99.90;;;;;;2088915;28;20184;-73
2021/06/11 01:06:52;;;;;;;31.92;24.58;;;11.50;99.90;;;;;;2080229;28;20173;-73
2021/06/11 01:07:54;;;;;;;31.30;25.00;;;11.50;99.90;;;;;;2080167;28;20182;-73
2021/06/11 01:08:55;;;;;;;31.90;25.20;;;11.50;99.90;;;;;;2080168;28;20299;-73
2021/06/11 01:09:56;;;;;;;31.95;25.05;;;11.50;99.90;;;;;;2080189;28;20243;-73
2021/06/11 01:10:59;;;;;;;22.95;20.42;;;11.50;99.90;;;;;;2089023;28;20172;-73
2021/06/11 01:11:59;;;;;;;25.63;22.02;;;11.50;99.90;;;;;;2080193;28;20199;-72
2021/06/11 01:13:01;;;;;;;28.47;22.87;;;11.50;99.90;;;;;;2071862;28;20723;-74
2021/06/11 01:14:02;;;;;;;28.65;23.08;;;11.50;99.90;;;;;;2071977;28;20185;-72
2021/06/11 01:15:06;;;;;;;31.50;24.52;;;11.50;99.90;;;;;;2080268;28;20674;-72
2021/06/11 01:16:07;;;;;;;29.15;23.10;;;11.50;99.90;;;;;;2090500;28;20191;-73
2021/06/11 01:17:09;;;;;;;25.17;22.30;;;11.50;99.90;;;;;;2080326;28;20261;-73
2021/06/11 01:18:12;;;;;;;26.48;22.05;;;11.50;99.90;;;;;;2088554;28;20221;-72
2021/06/11 01:19:13;;;;;;;24.10;20.92;;;11.60;99.90;;;;;;2088241;28;20172;-72
2021/06/11 01:20:16;;;;;;;26.83;23.35;;;11.50;99.90;;;;;;2080317;28;20184;-73
2021/06/11 01:21:20;;;;;;;21.83;19.60;;;11.50;99.90;;;;;;2080323;28;20567;-74
2021/06/11 01:22:35;;;;;;;23.20;20.77;;;11.50;99.90;;;;;;2088584;28;20184;-73
2021/06/11 01:24:01;;;;;;;26.98;22.02;;;11.50;99.90;;;;;;2088305;28;20187;-73
2021/06/11 01:25:15;;;;;;;26.77;20.23;;;11.40;99.90;;;;;;2091910;28;20164;-73
2021/06/11 01:26:24;;;;;;;26.00;21.30;;;11.40;99.90;;;;;;2088172;28;20194;-72
2021/06/11 01:27:28;;;;;;;22.95;20.35;;;11.30;99.90;;;;;;2081261;28;20193;-73
2021/06/11 01:28:30;;;;;;;29.08;22.38;;;11.30;99.90;;;;;;2089262;28;20577;-72
2021/06/11 01:29:32;;;;;;;31.00;23.15;;;11.30;99.90;;;;;;2089850;28;20238;-73
2021/06/11 01:30:34;;;;;;;25.08;21.42;;;11.30;99.90;;;;;;2081835;28;20188;-73
2021/06/11 01:31:40;;;;;;;24.98;21.80;;;11.20;99.90;;;;;;2081903;28;20183;-72
2021/06/11 01:32:44;;;;;;;24.95;21.40;;;11.20;99.90;;;;;;2090403;28;20183;-72
2021/06/11 01:33:52;;;;;;;23.75;20.60;;;11.20;99.90;;;;;;2090012;28;20176;-73
2021/06/11 01:34:53;;;;;;;23.42;20.65;;;11.20;99.90;;;;;;2082515;28;20261;-73
2021/06/11 01:36:01;;;;;;;23.92;19.65;;;11.20;99.90;;;;;;2090108;28;20704;-72
2021/06/11 01:37:13;;;;;;;26.20;21.75;;;11.20;99.90;;;;;;2089842;28;20823;-73
2021/06/11 01:38:22;;;;;;;25.15;21.08;;;11.20;99.90;;;;;;2091540;28;20573;-72
2021/06/11 01:39:23;;;;;;;22.58;19.90;;;11.20;99.90;;;;;;2089661;28;20860;-74
2021/06/11 01:40:23;;;;;;;26.02;21.67;;;11.20;99.90;;;;;;2089911;28;20210;-72
2021/06/11 01:41:25;;;;;;;23.93;20.83;;;11.20;99.90;;;;;;2089754;28;20179;-72
2021/06/11 01:42:27;;;;;;;28.63;22.05;;;11.20;99.90;;;;;;2089689;28;20274;-73
2021/06/11 01:43:27;;;;;;;23.17;20.52;;;11.20;99.90;;;;;;2089825;28;20802;-72
2021/06/11 01:44:29;;;;;;;29.77;24.23;;;11.20;99.90;;;;;;2089895;28;20180;-74
2021/06/11 01:45:30;;;;;;;22.10;19.80;;;11.20;99.90;;;;;;2089678;28;20793;-72
2021/06/11 01:46:34;;;;;;;23.08;20.58;;;11.20;99.90;;;;;;2089780;28;20577;-72
2021/06/11 01:47:44;;;;;;;22.85;20.42;;;11.20;99.90;;;;;;2089627;28;20231;-72
2021/06/11 01:48:47;;;;;;;24.45;21.35;;;11.20;99.90;;;;;;2091129;28;20163;-72
2021/06/11 01:49:51;;;;;;;26.35;22.10;;;11.20;99.90;;;;;;2081227;28;20867;-72
2021/06/11 01:50:52;;;;;;;21.05;18.73;;;11.20;99.90;;;;;;2082105;28;20268;-72
2021/06/11 01:51:55;;;;;;;22.05;19.17;;;11.20;99.90;;;;;;2089623;28;20222;-72
2021/06/11 01:52:58;;;;;;;24.02;19.92;;;11.10;99.90;;;;;;2089450;28;20175;-71
2021/06/11 01:54:01;;;;;;;23.42;20.13;;;11.20;99.90;;;;;;2089962;28;20179;-72
2021/06/11 01:55:03;;;;;;;25.98;20.75;;;11.10;99.90;;;;;;2089770;28;20207;-73
2021/06/11 01:56:04;;;;;;;24.50;19.67;;;11.10;99.90;;;;;;2089799;28;20175;-72
2021/06/11 01:57:07;;;;;;;23.88;20.10;;;11.10;99.90;;;;;;2089781;28;20183;-72
2021/06/11 01:58:09;;;;;;;38.03;25.75;;;11.10;99.90;;;;;;2089922;28;20240;-73
2021/06/11 01:59:10;;;;;;;28.67;22.80;;;11.10;99.90;;;;;;2089532;28;20648;-73
2021/06/11 02:00:13;;;;;;;40.13;28.48;;;11.00;99.90;;;;;;2089622;28;20198;-72
2021/06/11 02:01:17;;;;;;;28.60;22.38;;;11.10;99.90;;;;;;2089702;28;20551;-73
2021/06/11 02:02:19;;;;;;;32.28;24.30;;;11.00;99.90;;;;;;2081688;28;20180;-72
2021/06/11 02:03:22;;;;;;;28.45;23.42;;;11.00;99.90;;;;;;2090124;28;20190;-73
2021/06/11 02:04:24;;;;;;;23.58;21.05;;;11.00;99.90;;;;;;2089561;28;20221;-72
2021/06/11 02:05:25;;;;;;;22.38;19.98;;;11.00;99.90;;;;;;2081795;28;20211;-72
2021/06/11 02:06:27;;;;;;;24.17;21.33;;;11.00;99.90;;;;;;2089677;28;20208;-72
2021/06/11 02:07:29;;;;;;;26.05;21.88;;;11.00;99.90;;;;;;2098553;28;20560;-74
2021/06/11 02:08:32;;;;;;;22.90;20.50;;;11.00;99.90;;;;;;2089599;28;20203;-71
2021/06/11 02:09:32;;;;;;;23.80;20.38;;;11.00;99.90;;;;;;2081534;28;20197;-72
2021/06/11 02:10:33;;;;;;;22.03;19.73;;;11.10;99.90;;;;;;2089556;28;20720;-73
2021/06/11 02:11:36;;;;;;;23.30;19.55;;;11.10;99.90;;;;;;2089594;28;20229;-73
2021/06/11 02:12:38;;;;;;;22.33;17.10;;;11.10;99.90;;;;;;2089584;28;20184;-73
2021/06/11 02:13:47;;;;;;;21.02;17.83;;;11.10;99.90;;;;;;2097968;28;20625;-72
2021/06/11 02:14:48;;;;;;;18.45;15.88;;;11.10;99.90;;;;;;2089341;28;20839;-71
2021/06/11 02:15:50;;;;;;;23.67;16.23;;;11.00;99.90;;;;;;2089722;28;20214;-73
2021/06/11 02:16:51;;;;;;;24.17;19.48;;;11.00;99.90;;;;;;2089515;28;20209;-73
2021/06/11 02:17:54;;;;;;;23.25;19.13;;;10.90;99.90;;;;;;2081470;28;20575;-72
2021/06/11 02:19:01;;;;;;;20.77;17.13;;;10.90;99.90;;;;;;2089665;28;20179;-73
2021/06/11 02:20:24;;;;;;;24.17;19.08;;;10.90;99.90;;;;;;2089563;28;20635;-72
2021/06/11 02:21:26;;;;;;;22.10;18.75;;;10.80;99.90;;;;;;2075953;28;20203;-72
2021/06/11 02:22:27;;;;;;;22.27;18.88;;;10.80;99.90;;;;;;2081377;28;20184;-71
2021/06/11 02:23:29;;;;;;;22.87;19.57;;;10.80;99.90;;;;;;2089573;28;20226;-72
2021/06/11 02:24:32;;;;;;;19.42;16.90;;;10.80;99.90;;;;;;2089597;28;20538;-72
2021/06/11 02:25:33;;;;;;;22.80;18.13;;;10.80;99.90;;;;;;2089483;28;20184;-72
2021/06/11 02:26:36;;;;;;;26.20;19.77;;;10.80;99.90;;;;;;2081133;28;20224;-72
2021/06/11 02:27:38;;;;;;;20.50;17.05;;;10.70;99.90;;;;;;2081529;28;20181;-72
2021/06/11 02:28:40;;;;;;;25.65;19.88;;;10.70;99.90;;;;;;2089571;28;20251;-73
2021/06/11 02:29:41;;;;;;;28.95;22.05;;;10.60;99.90;;;;;;2089460;28;20210;-72
2021/06/11 02:30:42;;;;;;;25.73;20.87;;;10.60;99.90;;;;;;2089395;28;20644;-72
2021/06/11 02:31:42;;;;;;;31.63;23.10;;;10.60;99.90;;;;;;2097821;28;20719;-72
2021/06/11 02:32:44;;;;;;;25.93;21.50;;;10.60;99.90;;;;;;2089262;28;20689;-73
2021/06/11 02:33:46;;;;;;;23.25;20.70;;;10.60;99.90;;;;;;2081449;28;20573;-72
2021/06/11 02:34:46;;;;;;;26.85;21.30;;;10.60;99.90;;;;;;2073055;28;20189;-72
2021/06/11 02:35:47;;;;;;;31.03;23.80;;;10.60;99.90;;;;;;2081316;28;20290;-73
2021/06/11 02:36:48;;;;;;;24.13;19.87;;;10.60;99.90;;;;;;2089475;28;20208;-72
2021/06/11 02:37:49;;;;;;;23.17;20.40;;;10.60;99.90;;;;;;2098498;28;20188;-72
2021/06/11 02:38:50;;;;;;;19.55;17.50;;;10.60;99.90;;;;;;2089523;28;20231;-72
2021/06/11 02:39:50;;;;;;;26.33;21.67;;;10.60;99.90;;;;;;2089268;28;20261;-72
2021/06/11 02:41:14;;;;;;;27.87;21.87;;;10.60;99.90;;;;;;2098376;28;20205;-73
2021/06/11 02:42:15;;;;;;;23.55;19.65;;;10.60;99.90;;;;;;2091985;28;20190;-72
2021/06/11 02:43:20;;;;;;;21.47;18.53;;;10.60;99.90;;;;;;2085184;28;20662;-73
2021/06/11 02:44:25;;;;;;;23.58;19.38;;;10.60;99.90;;;;;;2083030;28;20190;-71
2021/06/11 02:45:30;;;;;;;25.42;21.17;;;10.60;99.90;;;;;;2089377;28;20187;-73
2021/06/11 02:46:55;;;;;;;26.83;22.63;;;10.60;99.90;;;;;;2081630;28;20196;-72
2021/06/11 02:48:26;;;;;;;27.77;22.20;;;10.60;99.90;;;;;;2089321;28;20210;-72
2021/06/11 02:49:36;;;;;;;24.25;20.10;;;10.60;99.90;;;;;;2081098;28;20661;-72
2021/06/11 02:50:41;;;;;;;24.70;19.83;;;10.60;99.90;;;;;;2082450;28;20174;-71
2021/06/11 02:51:48;;;;;;;27.60;23.08;;;10.70;99.90;;;;;;2089874;28;20221;-72
2021/06/11 02:52:52;;;;;;;21.35;19.15;;;10.70;99.90;;;;;;2097504;28;20177;-71
2021/06/11 02:53:54;;;;;;;23.92;19.23;;;10.70;99.90;;;;;;2089135;28;20183;-73
2021/06/11 02:55:00;;;;;;;23.52;20.85;;;10.70;99.90;;;;;;2081139;28;20180;-71
2021/06/11 02:56:13;;;;;;;23.60;19.73;;;10.70;99.90;;;;;;2089952;28;20174;-72
2021/06/11 02:57:24;;;;;;;30.80;23.02;;;10.70;99.90;;;;;;2097713;28;20159;-72
2021/06/11 02:58:35;;;;;;;31.48;21.02;;;10.60;99.90;;;;;;2098052;28;20175;-72
2021/06/11 02:59:44;;;;;;;27.02;21.52;;;10.60;99.90;;;;;;2089201;28;20270;-72
2021/06/11 03:00:47;;;;;;;31.13;23.67;;;10.60;99.90;;;;;;2090178;28;20256;-72
2021/06/11 03:01:54;;;;;;;25.35;21.60;;;10.60;99.90;;;;;;2089262;28;20188;-72
2021/06/11 03:03:14;;;;;;;25.23;20.23;;;10.60;99.90;;;;;;2081420;28;20658;-72
2021/06/11 03:04:15;;;;;;;23.00;20.50;;;10.50;99.90;;;;;;2091937;28;20163;-72
2021/06/11 03:05:19;;;;;;;27.40;20.00;;;10.60;99.90;;;;;;2097532;28;20175;-72
2021/06/11 03:06:22;;;;;;;20.92;17.65;;;10.60;99.90;;;;;;2089005;28;20213;-72
2021/06/11 03:07:31;;;;;;;22.88;20.13;;;10.60;99.90;;;;;;2081421;28;20191;-71
2021/06/11 03:08:36;;;;;;;20.50;18.08;;;10.60;99.90;;;;;;2090056;28;20160;-71
2021/06/11 03:09:40;;;;;;;20.25;18.10;;;10.50;99.90;;;;;;2089209;28;20278;-71
2021/06/11 03:10:47;;;;;;;26.52;21.65;;;10.50;99.90;;;;;;2089981;28;20178;-72
2021/06/11 03:11:50;;;;;;;33.42;22.73;;;10.50;99.90;;;;;;2089218;28;20192;-72
2021/06/11 03:12:51;;;;;;;29.52;22.05;;;10.50;99.90;;;;;;2080913;28;20575;-72
2021/06/11 03:13:53;;;;;;;27.05;22.15;;;10.50;99.90;;;;;;2089087;28;20652;-73
2021/06/11 03:14:54;;;;;;;28.80;23.23;;;10.50;99.90;;;;;;2089077;28;20195;-73
2021/06/11 03:15:58;;;;;;;26.63;21.50;;;10.40;99.90;;;;;;2089173;28;20213;-72
2021/06/11 03:17:01;;;;;;;28.13;22.23;;;10.40;99.90;;;;;;2089101;28;20202;-72
2021/06/11 03:18:08;;;;;;;25.83;19.88;;;10.40;99.90;;;;;;2089357;28;20187;-72
2021/06/11 03:19:11;;;;;;;32.42;23.20;;;10.40;99.90;;;;;;2089912;28;20202;-71
2021/06/11 03:20:18;;;;;;;28.33;23.02;;;10.40;99.90;;;;;;2081234;28;20199;-73
2021/06/11 03:21:25;;;;;;;29.40;23.70;;;10.50;99.90;;;;;;2089938;28;20251;-72
2021/06/11 03:22:36;;;;;;;41.72;27.40;;;10.50;99.90;;;;;;2088879;28;20230;-73
2021/06/11 03:23:47;;;;;;;24.55;21.40;;;10.50;99.90;;;;;;2082036;28;20779;-71
2021/06/11 03:24:58;;;;;;;29.92;23.35;;;10.50;99.90;;;;;;2082271;28;20168;-72
2021/06/11 03:26:03;;;;;;;29.35;22.75;;;10.50;99.90;;;;;;2090471;28;20198;-72
2021/06/11 03:27:17;;;;;;;23.30;19.33;;;10.50;99.90;;;;;;2097266;28;20187;-72
2021/06/11 03:28:32;;;;;;;28.30;21.58;;;10.50;99.90;;;;;;2089041;28;20619;-72
2021/06/11 03:29:44;;;;;;;30.17;23.02;;;10.50;99.90;;;;;;2090879;28;20717;-72
2021/06/11 03:30:52;;;;;;;30.17;23.00;;;10.50;99.90;;;;;;2097373;28;20166;-71
2021/06/11 03:31:57;;;;;;;29.60;22.55;;;10.60;99.90;;;;;;2089034;28;20625;-72
2021/06/11 03:33:06;;;;;;;37.35;24.67;;;10.50;99.90;;;;;;2081190;28;20188;-72
2021/06/11 03:34:15;;;;;;;32.47;24.30;;;10.50;99.90;;;;;;2081759;28;20163;-72
2021/06/11 03:35:24;;;;;;;24.45;19.65;;;10.50;99.90;;;;;;2081958;28;20192;-72
2021/06/11 03:36:32;;;;;;;23.95;20.13;;;10.60;99.90;;;;;;2081999;28;20204;-72
2021/06/11 03:37:33;;;;;;;36.95;26.15;;;10.60;99.90;;;;;;2089889;28;20739;-73
2021/06/11 03:38:38;;;;;;;34.17;25.58;;;10.60;99.90;;;;;;2097332;28;20194;-73
2021/06/11 03:39:52;;;;;;;32.13;23.75;;;10.60;99.90;;;;;;2088819;28;20203;-72
2021/06/11 03:40:55;;;;;;;26.80;21.38;;;10.70;99.90;;;;;;2091146;28;20376;-72
2021/06/11 03:41:57;;;;;;;25.40;21.10;;;10.70;99.90;;;;;;2088725;28;20591;-72
2021/06/11 03:43:00;;;;;;;24.65;21.08;;;10.70;99.90;;;;;;2088770;28;20187;-72
2021/06/11 03:44:03;;;;;;;25.05;20.98;;;10.70;99.90;;;;;;2088848;28;20276;-71
2021/06/11 03:45:05;;;;;;;21.75;18.10;;;10.60;99.90;;;;;;2081051;28;20192;-72
2021/06/11 03:46:08;;;;;;;21.75;19.17;;;10.60;99.90;;;;;;2088789;28;20214;-72
2021/06/11 03:47:11;;;;;;;21.55;18.48;;;10.60;99.90;;;;;;2088864;28;20613;-71
2021/06/11 03:48:17;;;;;;;26.20;21.10;;;10.70;99.90;;;;;;2080957;28;20756;-71
2021/06/11 03:49:21;;;;;;;19.27;17.33;;;10.60;99.90;;;;;;2081294;28;20198;-73
2021/06/11 03:50:24;;;;;;;22.90;18.30;;;10.60;99.90;;;;;;2080895;28;20259;-72
2021/06/11 03:51:28;;;;;;;21.38;18.08;;;10.50;99.90;;;;;;2088671;28;20178;-71
2021/06/11 03:52:32;;;;;;;20.23;18.00;;;10.60;99.90;;;;;;2088536;28;20174;-71
2021/06/11 03:53:36;;;;;;;21.58;18.52;;;10.60;99.90;;;;;;2088857;28;20684;-71
2021/06/11 03:54:45;;;;;;;20.80;18.10;;;10.60;99.90;;;;;;2089081;28;20226;-72
2021/06/11 03:56:02;;;;;;;18.60;16.40;;;10.50;99.90;;;;;;2088700;28;20259;-72
2021/06/11 03:57:06;;;;;;;23.60;18.75;;;10.50;99.90;;;;;;2090767;28;20179;-71
2021/06/11 03:58:17;;;;;;;22.75;18.95;;;10.60;99.90;;;;;;2096924;28;20177;-71
2021/06/11 03:59:22;;;;;;;22.05;19.00;;;10.50;99.90;;;;;;2088551;28;20195;-72
2021/06/11 04:00:24;;;;;;;18.60;16.58;;;10.50;99.90;;;;;;2089256;28;20168;-73
2021/06/11 04:01:29;;;;;;;20.48;16.90;;;10.50;99.90;;;;;;2088667;28;20183;-71
2021/06/11 04:02:30;;;;;;;23.42;18.88;;;10.60;99.90;;;;;;2089031;28;20186;-71
2021/06/11 04:03:31;;;;;;;21.10;16.87;;;10.50;99.90;;;;;;2080295;28;20198;-72
2021/06/11 04:04:33;;;;;;;23.60;16.80;;;10.60;99.90;;;;;;2080478;28;20596;-71
2021/06/11 04:05:34;;;;;;;19.58;17.02;;;10.60;99.90;;;;;;2097656;28;20178;-71
2021/06/11 04:06:51;;;;;;;18.95;16.98;;;10.60;99.90;;;;;;2097422;28;20220;-71
2021/06/11 04:07:57;;;;;;;16.52;14.82;;;10.70;99.90;;;;;;2097023;28;20643;-72
2021/06/11 04:09:05;;;;;;;19.95;16.88;;;10.70;99.90;;;;;;2088524;28;20187;-71
2021/06/11 04:10:14;;;;;;;22.95;18.33;;;10.70;99.90;;;;;;2081591;28;20172;-74
2021/06/11 04:11:25;;;;;;;19.17;16.92;;;10.60;99.90;;;;;;2073280;28;20185;-73
2021/06/11 04:12:37;;;;;;;22.05;18.30;;;10.70;99.90;;;;;;2074955;28;20166;-74
2021/06/11 04:13:52;;;;;;;25.08;19.65;;;10.70;99.90;;;;;;2081932;28;20163;-72
2021/06/11 04:14:54;;;;;;;23.00;19.30;;;10.70;99.90;;;;;;2082390;28;20641;-73
2021/06/11 04:15:57;;;;;;;23.00;19.00;;;10.70;99.90;;;;;;2088818;28;20171;-73
2021/06/11 04:17:00;;;;;;;20.05;17.95;;;10.80;99.90;;;;;;2097129;28;20175;-71
2021/06/11 04:18:09;;;;;;;19.50;17.05;;;10.80;99.90;;;;;;2088644;28;20191;-73
2021/06/11 04:19:18;;;;;;;20.88;16.88;;;10.80;99.90;;;;;;2089930;28;20168;-73
2021/06/11 04:20:27;;;;;;;19.33;16.75;;;10.80;99.90;;;;;;2089821;28;20183;-73
2021/06/11 04:21:33;;;;;;;19.75;17.40;;;10.80;99.90;;;;;;2091500;28;20182;-71
2021/06/11 04:22:36;;;;;;;19.95;15.85;;;10.70;99.90;;;;;;2098136;28;20190;-73
2021/06/11 04:23:40;;;;;;;20.80;17.42;;;10.70;99.90;;;;;;2089895;28;20604;-73
2021/06/11 04:24:49;;;;;;;18.60;16.67;;;10.70;99.90;;;;;;2082243;28;20180;-73
2021/06/11 04:25:53;;;;;;;22.30;17.45;;;10.80;99.90;;;;;;2082865;28;20176;-73
2021/06/11 04:26:57;;;;;;;19.85;17.75;;;10.80;99.90;;;;;;2082144;28;20185;-73
2021/06/11 04:27:59;;;;;;;20.60;17.10;;;10.80;99.90;;;;;;2073854;28;20185;-73
2021/06/11 04:29:07;;;;;;;21.52;17.92;;;10.80;99.90;;;;;;2081903;28;20650;-73
2021/06/11 04:30:10;;;;;;;25.33;20.33;;;10.90;99.90;;;;;;2082836;28;20189;-73
2021/06/11 04:31:11;;;;;;;26.30;20.63;;;10.90;99.90;;;;;;2082044;28;20177;-74
2021/06/11 04:32:12;;;;;;;19.57;17.50;;;10.90;99.90;;;;;;2081573;28;20184;-74
2021/06/11 04:33:21;;;;;;;19.33;17.25;;;11.00;99.90;;;;;;2089817;28;20184;-74
2021/06/11 04:34:24;;;;;;;24.67;19.58;;;11.00;99.90;;;;;;2089952;28;20184;-73
2021/06/11 04:35:32;;;;;;;25.58;21.40;;;11.00;99.90;;;;;;2090412;28;20190;-74
2021/06/11 04:36:34;;;;;;;24.80;20.00;;;11.00;99.90;;;;;;2089977;28;20693;-73
2021/06/11 04:37:38;;;;;;;24.52;19.20;;;11.10;99.90;;;;;;2090770;28;20180;-73
2021/06/11 04:39:02;;;;;;;23.33;19.67;;;11.10;99.90;;;;;;2098583;28;20554;-74
2021/06/11 04:40:07;;;;;;;25.90;20.65;;;11.10;99.90;;;;;;2089899;28;20167;-73
2021/06/11 04:41:10;;;;;;;25.27;20.88;;;11.10;99.90;;;;;;2082275;28;20284;-73
2021/06/11 04:42:11;;;;;;;24.48;20.35;;;11.20;99.90;;;;;;2085483;28;20189;-74
2021/06/11 04:43:12;;;;;;;25.42;19.60;;;11.20;99.90;;;;;;2095892;28;20258;-73
2021/06/11 04:44:13;;;;;;;21.23;18.38;;;11.20;99.90;;;;;;2092470;28;20173;-74
2021/06/11 04:45:14;;;;;;;20.40;18.30;;;11.30;99.90;;;;;;2090420;28;20536;-73
2021/06/11 04:46:15;;;;;;;20.52;18.33;;;11.30;99.90;;;;;;2090422;28;20338;-73
2021/06/11 04:47:16;;;;;;;19.33;17.23;;;11.40;99.90;;;;;;2081704;28;20188;-73
2021/06/11 04:48:16;;;;;;;18.53;16.53;;;11.40;99.90;;;;;;2081622;28;20177;-73
2021/06/11 04:49:17;;;;;;;23.73;19.13;;;11.40;99.90;;;;;;2090442;28;20228;-74
2021/06/11 04:50:18;;;;;;;20.38;17.92;;;11.40;99.90;;;;;;2081765;28;20244;-74
2021/06/11 04:51:20;;;;;;;18.70;16.70;;;11.40;99.90;;;;;;2081748;28;20172;-73
2021/06/11 04:52:20;;;;;;;20.92;18.15;;;11.40;99.90;;;;;;2081595;28;20180;-73
2021/06/11 04:53:21;;;;;;;21.27;18.97;;;11.50;99.90;;;;;;2081472;28;20172;-73
2021/06/11 04:54:22;;;;;;;19.17;16.90;;;11.50;99.90;;;;;;2090018;28;20810;-73
2021/06/11 04:55:23;;;;;;;26.57;20.27;;;11.50;99.90;;;;;;2090307;28;20172;-74
2021/06/11 04:56:24;;;;;;;20.88;18.55;;;11.50;99.90;;;;;;2089929;28;20180;-73
2021/06/11 04:57:25;;;;;;;21.77;19.10;;;11.60;99.90;;;;;;2081577;28;20185;-73
2021/06/11 04:58:28;;;;;;;21.63;18.90;;;11.60;99.90;;;;;;2081702;28;20214;-73
2021/06/11 04:59:29;;;;;;;26.20;21.85;;;11.70;99.90;;;;;;2090109;28;20219;-74
2021/06/11 05:00:29;;;;;;;25.43;20.47;;;11.80;99.90;;;;;;2090433;28;20184;-73
2021/06/11 05:01:30;;;;;;;23.67;20.47;;;11.80;99.90;;;;;;2090460;28;20187;-73
2021/06/11 05:02:31;;;;;;;20.47;18.37;;;11.80;99.90;;;;;;2090210;28;20250;-73
2021/06/11 05:03:33;;;;;;;19.60;17.20;;;11.90;99.90;;;;;;2091203;28;20260;-73
2021/06/11 05:04:34;;;;;;;23.50;20.85;;;11.90;99.90;;;;;;2091612;28;20218;-73
2021/06/11 05:05:34;;;;;;;19.03;16.47;;;12.00;99.90;;;;;;2091380;28;20184;-73
2021/06/11 05:06:35;;;;;;;23.20;19.47;;;12.00;99.90;;;;;;2091485;28;20206;-73
2021/06/11 05:07:36;;;;;;;22.03;19.67;;;12.10;99.90;;;;;;2091455;28;20246;-73
2021/06/11 05:08:37;;;;;;;19.35;17.23;;;12.10;99.90;;;;;;2092063;28;20188;-73
2021/06/11 05:09:38;;;;;;;20.07;18.00;;;12.20;99.90;;;;;;2090490;28;20202;-74
2021/06/11 05:10:40;;;;;;;19.60;17.60;;;12.20;99.90;;;;;;2090606;28;20176;-74
2021/06/11 05:11:40;;;;;;;21.67;18.90;;;12.20;99.90;;;;;;2090563;28;20176;-73
2021/06/11 05:12:41;;;;;;;21.77;18.33;;;12.20;99.90;;;;;;2090453;28;20647;-73
2021/06/11 05:13:42;;;;;;;22.23;18.93;;;12.30;99.90;;;;;;2090541;28;20667;-72
2021/06/11 05:14:43;;;;;;;22.40;18.93;;;12.40;99.90;;;;;;2090674;28;20183;-73
2021/06/11 05:15:43;;;;;;;20.10;18.00;;;12.40;99.90;;;;;;2081680;28;20184;-73
2021/06/11 05:16:44;;;;;;;20.80;18.47;;;12.40;99.90;;;;;;2081725;28;20227;-73
2021/06/11 05:17:45;;;;;;;24.13;19.37;;;12.40;99.90;;;;;;2090519;28;20195;-73
2021/06/11 05:18:46;;;;;;;22.17;19.40;;;12.50;99.90;;;;;;2090592;28;20505;-73
2021/06/11 05:19:46;;;;;;;24.83;20.20;;;12.50;99.90;;;;;;2090415;28;20207;-73
2021/06/11 05:20:47;;;;;;;25.93;21.17;;;12.50;99.90;;;;;;2090669;28;20184;-73
2021/06/11 05:21:48;;;;;;;21.03;18.63;;;12.50;99.90;;;;;;2090566;28;20639;-73
2021/06/11 05:22:48;;;;;;;22.13;19.23;;;12.50;99.90;;;;;;2090419;28;20177;-73
2021/06/11 05:23:49;;;;;;;19.57;17.23;;;12.50;99.90;;;;;;2090489;28;20188;-74